메인 페이지
METAR-TAF:

METAR-TAF

공항 :

말라티아, 터키

위도: 38-26N, 경도: 038-05E, 고도: 862m

현재 날씨관측

예보는 43분 전, 09:50시(UTC)에 발표되었습니다.
북북서9kt
온도 6°C
습도 39%
기압 1017 hPa
시정 10km 이상
고도 4000ft 상공 구름 조금
고도 10000ft 상공 구름 보통

METAR: LTAT 180950Z 33009KT 9999 FEW040 SCT100 06/M07 Q1017 NOSIG RMK RWY03 11004KT

시각: 13:33 (10:33 UTC)

예보

예보는 5 시간 53분 전, 04:40시(UTC)에 발표되었습니다.
예보 대상 시간: 18일 06시부터 19일 06시까지 (UTC)
여러 방향의 바람 2kt
시정 10km 이상
고도 4000ft 상공 구름 보통
고도 10000ft 상공 구름 많음

TAF: LTAT 180440Z 1806/1906 VRB02KT 9999 SCT040 BKN100

4,000개 이상의 공항 관측 자료 및 예보 (METAR 및 TAF 보고).

지도상에서 검색 가능한 기상관측소가 노란 점과 빨간 점으로 표시되어 있습니다.

기상관측소 명을 보려면 표시 위로 마우스를 이동하세요.

날씨 관측과 예보를 보려면 클릭하세요.

지도 변경 : 확대하려면 엑스 표시가 있는 녹색 버튼, 축소하려면 빼기 표시가 있는 녹색 버튼, 다음 페이지의 지도를 보려면 녹색 화살표를 클릭하세요.


METAR-TAF: